createdAt,value
2018-09-22T00:00:02.048Z,18.08
2018-09-22T00:02:30.971Z,18.15
2018-09-22T00:04:59.887Z,18.10
2018-09-22T00:07:28.867Z,18.24
2018-09-22T00:09:57.774Z,18.20
2018-09-22T00:12:26.703Z,18.02
2018-09-22T00:14:55.571Z,17.81
2018-09-22T00:17:24.564Z,17.77
2018-09-22T00:19:53.558Z,17.78
2018-09-22T00:22:22.523Z,17.73
2018-09-22T00:24:51.524Z,17.64
2018-09-22T00:27:20.608Z,17.83
2018-09-22T00:29:49.560Z,17.83
2018-09-22T00:32:18.546Z,17.87
2018-09-22T00:34:47.448Z,17.83
2018-09-22T00:37:16.326Z,17.72
2018-09-22T00:39:45.333Z,17.66
2018-09-22T00:42:14.182Z,17.73
2018-09-22T00:44:43.083Z,17.67
2018-09-22T00:47:12.030Z,17.63
2018-09-22T00:49:40.951Z,17.59
2018-09-22T00:52:10.097Z,17.37
2018-09-22T00:54:39.083Z,17.41
2018-09-22T00:57:07.959Z,17.37
2018-09-22T00:59:36.894Z,17.33
2018-09-22T01:02:07.062Z,17.23
2018-09-22T01:04:35.947Z,17.17
2018-09-22T01:07:04.896Z,17.17
2018-09-22T01:09:33.847Z,17.27
2018-09-22T01:12:02.783Z,17.28
2018-09-22T01:14:32.016Z,17.12
2018-09-22T01:17:00.877Z,17.08
2018-09-22T01:19:29.832Z,17.19
2018-09-22T01:21:58.777Z,17.22
2018-09-22T01:24:27.721Z,17.26
2018-09-22T01:26:56.588Z,17.27
2018-09-22T01:29:25.634Z,17.07
2018-09-22T01:31:54.599Z,17.02
2018-09-22T01:34:23.510Z,17.01
2018-09-22T01:36:52.658Z,17.05
2018-09-22T01:39:21.544Z,17.06
2018-09-22T01:41:50.446Z,17.05
2018-09-22T01:44:19.504Z,17.04
2018-09-22T01:46:48.424Z,17.11
2018-09-22T01:49:17.329Z,17.12
2018-09-22T01:51:46.215Z,17.03
2018-09-22T01:54:15.122Z,17.04
2018-09-22T01:56:44.092Z,17.11
2018-09-22T01:59:12.941Z,17.13
2018-09-22T02:01:41.873Z,17.17
2018-09-22T02:04:10.776Z,17.15
2018-09-22T02:06:39.626Z,17.12
2018-09-22T02:09:09.763Z,17.19
2018-09-22T02:11:40.570Z,17.15
2018-09-22T02:14:09.511Z,17.13
2018-09-22T02:16:38.383Z,17.20
2018-09-22T02:19:07.406Z,17.13
2018-09-22T02:21:36.282Z,16.98
2018-09-22T02:24:05.162Z,16.88
2018-09-22T02:26:34.268Z,16.87
2018-09-22T02:29:03.165Z,16.78
2018-09-22T02:31:32.002Z,16.78
2018-09-22T02:34:00.851Z,16.82
2018-09-22T02:36:29.720Z,16.74
2018-09-22T02:38:58.603Z,16.75
2018-09-22T02:41:27.568Z,16.80
2018-09-22T02:43:56.457Z,16.76
2018-09-22T02:46:25.365Z,16.74
2018-09-22T02:48:54.208Z,16.71
2018-09-22T02:51:23.049Z,16.76
2018-09-22T02:53:52.090Z,16.88
2018-09-22T02:56:21.009Z,16.91
2018-09-22T02:58:49.926Z,16.79
2018-09-22T03:01:18.959Z,16.67
2018-09-22T03:03:47.852Z,16.55
2018-09-22T03:06:16.760Z,16.51
2018-09-22T03:08:45.683Z,16.39
2018-09-22T03:11:14.567Z,16.36
2018-09-22T03:13:43.468Z,16.21
2018-09-22T03:16:12.421Z,16.23
2018-09-22T03:18:41.252Z,16.02
2018-09-22T03:21:10.059Z,16.03
2018-09-22T03:23:39.011Z,16.02
2018-09-22T03:26:08.323Z,16.02
2018-09-22T03:28:37.220Z,16.02
2018-09-22T03:31:06.165Z,16.09
2018-09-22T03:33:35.059Z,16.11
2018-09-22T03:36:03.914Z,16.15
2018-09-22T03:38:32.835Z,16.14
2018-09-22T03:41:01.695Z,16.20
2018-09-22T03:43:30.595Z,16.22
2018-09-22T03:45:59.539Z,16.38
2018-09-22T03:48:28.458Z,16.36
2018-09-22T03:50:57.400Z,16.40
2018-09-22T03:53:26.255Z,16.48
2018-09-22T03:55:57.899Z,16.46
2018-09-22T03:58:26.839Z,16.45
2018-09-22T04:00:55.692Z,16.52
2018-09-22T04:03:24.597Z,16.56
2018-09-22T04:05:54.878Z,16.58
2018-09-22T04:08:23.788Z,16.57
2018-09-22T04:10:52.611Z,16.52
2018-09-22T04:13:21.495Z,16.50
2018-09-22T04:15:50.348Z,16.54
2018-09-22T04:18:19.228Z,16.59
2018-09-22T04:20:50.151Z,16.69
2018-09-22T04:23:19.032Z,16.73
2018-09-22T04:25:47.963Z,16.74
2018-09-22T04:28:16.887Z,16.79
2018-09-22T04:30:45.879Z,16.87
2018-09-22T04:33:14.782Z,16.89
2018-09-22T04:35:43.735Z,16.93
2018-09-22T04:38:12.719Z,16.95
2018-09-22T04:40:41.701Z,16.89
2018-09-22T04:43:10.783Z,16.87
2018-09-22T04:45:39.726Z,16.74
2018-09-22T04:48:08.648Z,16.63
2018-09-22T04:50:37.593Z,16.59
2018-09-22T04:53:06.477Z,16.61
2018-09-22T04:55:35.385Z,16.67
2018-09-22T04:58:04.378Z,16.84
2018-09-22T05:00:33.256Z,16.96
2018-09-22T05:03:02.175Z,17.04
2018-09-22T05:05:32.267Z,17.07
2018-09-22T05:08:01.236Z,17.22
2018-09-22T05:10:30.127Z,17.33
2018-09-22T05:12:59.091Z,17.39
2018-09-22T05:15:28.127Z,17.42
2018-09-22T05:17:57.012Z,17.42
2018-09-22T05:20:25.901Z,17.48
2018-09-22T05:22:54.915Z,17.45
2018-09-22T05:25:23.886Z,17.52
2018-09-22T05:27:52.831Z,17.64
2018-09-22T05:30:21.770Z,17.73
2018-09-22T05:32:50.717Z,17.66
2018-09-22T05:35:19.579Z,17.66
2018-09-22T05:37:48.512Z,17.70
2018-09-22T05:40:17.428Z,17.82
2018-09-22T05:42:46.287Z,17.92
2018-09-22T05:45:15.259Z,17.95
2018-09-22T05:47:44.193Z,18.00
2018-09-22T05:50:13.144Z,18.24
2018-09-22T05:52:42.078Z,18.32
2018-09-22T05:55:11.103Z,18.42
2018-09-22T05:57:40.007Z,18.33
2018-09-22T06:00:09.118Z,18.41
2018-09-22T06:02:38.005Z,18.63
2018-09-22T06:05:06.901Z,18.67
2018-09-22T06:07:35.898Z,18.75
2018-09-22T06:10:04.835Z,18.73
2018-09-22T06:12:33.760Z,18.71
2018-09-22T06:15:02.668Z,18.59
2018-09-22T06:17:31.545Z,18.63
2018-09-22T06:20:00.475Z,19.03
2018-09-22T06:22:29.361Z,19.03
2018-09-22T06:24:59.667Z,19.11
2018-09-22T06:27:28.599Z,19.41
2018-09-22T06:29:57.555Z,19.62
2018-09-22T06:32:26.463Z,19.95
2018-09-22T06:34:55.495Z,20.14
2018-09-22T06:37:24.442Z,20.41
2018-09-22T06:39:53.563Z,20.65
2018-09-22T06:42:22.410Z,20.67
2018-09-22T06:44:51.544Z,20.59
2018-09-22T06:47:20.562Z,20.60
2018-09-22T06:49:49.397Z,20.91
2018-09-22T06:52:18.332Z,21.08
2018-09-22T06:54:47.279Z,21.32
2018-09-22T06:57:16.315Z,21.29
2018-09-22T06:59:45.314Z,21.47
2018-09-22T07:02:14.266Z,21.68
2018-09-22T07:04:43.231Z,21.87
2018-09-22T07:07:12.209Z,21.88
2018-09-22T07:09:42.484Z,22.06
2018-09-22T07:12:11.399Z,22.29
2018-09-22T07:14:40.370Z,22.36
2018-09-22T07:17:10.991Z,22.46
2018-09-22T07:19:40.050Z,22.53
2018-09-22T07:22:15.577Z,22.20
2018-09-22T07:24:44.534Z,22.49
2018-09-22T07:27:13.492Z,22.74
2018-09-22T07:29:42.575Z,22.89
2018-09-22T07:32:11.572Z,23.04
2018-09-22T07:34:40.647Z,23.02
2018-09-22T07:37:10.982Z,23.09
2018-09-22T07:39:39.834Z,23.08
2018-09-22T07:42:08.729Z,23.18
2018-09-22T07:44:37.643Z,23.30
2018-09-22T07:47:06.985Z,23.40
2018-09-22T07:49:36.030Z,23.25
2018-09-22T07:52:05.088Z,23.40
2018-09-22T07:54:35.483Z,23.40
2018-09-22T07:57:04.377Z,23.60
2018-09-22T07:59:33.317Z,23.43
2018-09-22T08:02:02.319Z,23.63
2018-09-22T08:04:31.174Z,23.67
2018-09-22T08:07:00.098Z,23.54
2018-09-22T08:09:29.043Z,23.61
2018-09-22T08:11:57.966Z,23.63
2018-09-22T08:14:28.474Z,23.77
2018-09-22T08:16:57.586Z,23.91
2018-09-22T08:19:26.423Z,24.16
2018-09-22T08:21:55.419Z,23.91
2018-09-22T08:24:24.376Z,23.64
2018-09-22T08:26:53.507Z,24.15
2018-09-22T08:29:22.480Z,24.53
2018-09-22T08:31:51.466Z,24.69
2018-09-22T08:34:21.754Z,24.82
2018-09-22T08:36:50.747Z,24.93
2018-09-22T08:39:19.649Z,25.02
2018-09-22T08:41:48.630Z,25.12
2018-09-22T08:44:17.567Z,24.97
2018-09-22T08:46:46.450Z,24.86
2018-09-22T08:49:15.307Z,24.94
2018-09-22T08:51:44.405Z,25.00
2018-09-22T08:54:13.289Z,24.97
2018-09-22T08:56:42.174Z,25.03
2018-09-22T08:59:11.218Z,25.13
2018-09-22T09:01:40.527Z,24.89
2018-09-22T09:04:09.538Z,24.96
2018-09-22T09:06:38.458Z,25.01
2018-09-22T09:09:08.862Z,25.00
2018-09-22T09:11:37.768Z,25.05
2018-09-22T09:14:06.961Z,24.98
2018-09-22T09:16:35.892Z,24.65
2018-09-22T09:19:05.207Z,25.02
2018-09-22T09:21:34.099Z,25.04
2018-09-22T09:24:03.022Z,25.10
2018-09-22T09:26:31.962Z,25.24
2018-09-22T09:29:01.064Z,25.37
2018-09-22T09:31:30.011Z,25.44
2018-09-22T09:33:59.005Z,25.49
2018-09-22T09:36:27.931Z,25.64
2018-09-22T09:39:00.136Z,25.79
2018-09-22T09:41:29.119Z,25.45
2018-09-22T09:43:58.043Z,25.60
2018-09-22T09:46:27.224Z,25.56
2018-09-22T09:48:56.250Z,25.59
2018-09-22T09:51:25.149Z,25.84
2018-09-22T09:53:54.002Z,25.63
2018-09-22T09:56:22.872Z,25.68
2018-09-22T09:58:51.842Z,25.73
2018-09-22T10:01:20.749Z,25.65
2018-09-22T10:03:49.928Z,25.71
2018-09-22T10:06:18.996Z,25.73
2018-09-22T10:08:47.852Z,25.94
2018-09-22T10:11:16.755Z,26.14
2018-09-22T10:13:45.797Z,26.28
2018-09-22T10:16:14.665Z,26.24
2018-09-22T10:18:43.781Z,26.33
2018-09-22T10:21:12.850Z,26.47
2018-09-22T10:23:41.723Z,26.30
2018-09-22T10:26:10.780Z,26.37
2018-09-22T10:28:39.804Z,26.44
2018-09-22T10:31:08.641Z,26.40
2018-09-22T10:33:37.591Z,26.41
2018-09-22T10:36:06.555Z,26.41
2018-09-22T10:38:35.508Z,26.58
2018-09-22T10:41:04.512Z,26.57
2018-09-22T10:43:33.536Z,26.58
2018-09-22T10:46:03.213Z,26.44
2018-09-22T10:48:32.123Z,26.25
2018-09-22T10:51:01.090Z,26.35
2018-09-22T10:53:29.995Z,26.51
2018-09-22T10:55:58.955Z,26.57
2018-09-22T10:58:29.083Z,26.43
2018-09-22T11:00:57.996Z,26.33
2018-09-22T11:03:27.025Z,26.14
2018-09-22T11:05:57.196Z,26.13
2018-09-22T11:08:26.045Z,26.19
2018-09-22T11:10:54.964Z,26.11
2018-09-22T11:13:24.040Z,26.23
2018-09-22T11:15:53.007Z,26.29
2018-09-22T11:18:21.976Z,26.13
2018-09-22T11:20:51.411Z,26.15
2018-09-22T11:23:20.565Z,26.27
2018-09-22T11:25:49.601Z,26.25
2018-09-22T11:28:18.573Z,26.36
2018-09-22T11:30:47.506Z,26.25
2018-09-22T11:33:17.180Z,26.21
2018-09-22T11:35:47.648Z,26.01
2018-09-22T11:38:16.640Z,26.07
2018-09-22T11:40:45.594Z,26.12
2018-09-22T11:43:15.789Z,26.13
2018-09-22T11:45:44.944Z,26.20
2018-09-22T11:48:13.946Z,26.12
2018-09-22T11:50:42.995Z,26.19
2018-09-22T11:53:11.895Z,26.26
2018-09-22T11:55:40.860Z,26.35
2018-09-22T11:58:11.133Z,26.38
2018-09-22T12:00:40.059Z,26.40
2018-09-22T12:03:08.975Z,26.03
2018-09-22T12:05:38.065Z,26.08
2018-09-22T12:08:06.999Z,26.07
2018-09-22T12:10:35.991Z,26.02
2018-09-22T12:13:06.352Z,26.01
2018-09-22T12:15:35.330Z,25.69
2018-09-22T12:18:04.270Z,25.77
2018-09-22T12:20:33.284Z,25.67
2018-09-22T12:23:02.265Z,25.61
2018-09-22T12:25:32.558Z,25.77
2018-09-22T12:28:02.737Z,25.91
2018-09-22T12:30:31.650Z,26.04
2018-09-22T12:33:00.561Z,26.03
2018-09-22T12:35:31.096Z,26.05
2018-09-22T12:38:00.036Z,25.89
2018-09-22T12:40:29.000Z,25.72
2018-09-22T12:42:59.200Z,25.89
2018-09-22T12:45:28.341Z,25.98
2018-09-22T12:47:57.267Z,25.66
2018-09-22T12:50:26.322Z,25.83
2018-09-22T12:52:56.539Z,25.90
2018-09-22T12:55:25.513Z,25.67
2018-09-22T12:57:54.530Z,25.60
2018-09-22T13:00:23.637Z,25.78
2018-09-22T13:02:52.579Z,26.09
2018-09-22T13:05:21.756Z,26.75
2018-09-22T13:07:50.834Z,27.88
2018-09-22T13:10:19.806Z,28.10
2018-09-22T13:12:48.790Z,28.40
2018-09-22T13:15:17.902Z,28.43
2018-09-22T13:17:46.860Z,28.23
2018-09-22T13:20:15.881Z,28.29
2018-09-22T13:22:44.952Z,28.91
2018-09-22T13:25:13.913Z,28.78
2018-09-22T13:27:44.241Z,28.75
2018-09-22T13:30:13.167Z,29.34
2018-09-22T13:32:42.129Z,30.29
2018-09-22T13:35:11.140Z,29.48
2018-09-22T13:37:40.061Z,29.06
2018-09-22T13:40:09.052Z,28.43
2018-09-22T13:42:44.547Z,28.22
2018-09-22T13:45:13.545Z,28.29
2018-09-22T13:47:42.515Z,28.80
2018-09-22T13:50:12.984Z,29.48
2018-09-22T13:52:41.918Z,29.48
2018-09-22T13:55:10.941Z,28.75
2018-09-22T13:57:39.914Z,28.46
2018-09-22T14:00:08.985Z,28.57
2018-09-22T14:02:37.979Z,28.41
2018-09-22T14:05:07.020Z,29.44
2018-09-22T14:07:36.264Z,29.31
2018-09-22T14:10:05.463Z,28.75
2018-09-22T14:12:34.453Z,29.14
2018-09-22T14:15:03.457Z,28.97
2018-09-22T14:17:32.387Z,29.27
2018-09-22T14:20:01.321Z,28.58
2018-09-22T14:22:30.313Z,28.02
2018-09-22T14:24:59.269Z,28.28
2018-09-22T14:27:29.624Z,28.51
2018-09-22T14:29:59.009Z,29.11
2018-09-22T14:32:27.966Z,28.50
2018-09-22T14:34:56.989Z,29.04
2018-09-22T14:37:25.940Z,28.63
2018-09-22T14:39:54.956Z,29.47
2018-09-22T14:42:23.903Z,29.58
2018-09-22T14:44:52.908Z,28.54
2018-09-22T14:47:21.879Z,27.92
2018-09-22T14:49:50.870Z,28.10
2018-09-22T14:52:19.860Z,28.47
2018-09-22T14:54:48.864Z,28.13
2018-09-22T14:57:17.817Z,28.56
2018-09-22T14:59:46.731Z,28.45
2018-09-22T15:02:15.695Z,28.52
2018-09-22T15:04:44.640Z,28.55
2018-09-22T15:07:13.557Z,27.96
2018-09-22T15:09:42.573Z,28.19
2018-09-22T15:12:11.518Z,28.73
2018-09-22T15:14:40.647Z,28.99
2018-09-22T15:17:09.621Z,28.77
2018-09-22T15:19:38.558Z,29.00
2018-09-22T15:22:07.879Z,29.01
2018-09-22T15:24:38.576Z,28.74
2018-09-22T15:27:07.755Z,28.17
2018-09-22T15:29:36.733Z,28.48
2018-09-22T15:32:07.192Z,28.06
2018-09-22T15:34:36.175Z,27.78
2018-09-22T15:37:05.336Z,27.41
2018-09-22T15:39:34.344Z,26.65
2018-09-22T15:42:03.324Z,26.50
2018-09-22T15:44:33.618Z,26.23
2018-09-22T15:47:04.004Z,25.48
2018-09-22T15:49:33.577Z,25.21
2018-09-22T15:52:02.597Z,24.98
2018-09-22T15:54:31.600Z,24.51
2018-09-22T15:57:00.711Z,24.34
2018-09-22T15:59:29.725Z,24.28
2018-09-22T16:01:58.710Z,24.35
2018-09-22T16:04:27.902Z,24.22
2018-09-22T16:06:58.530Z,24.03
2018-09-22T16:09:27.659Z,23.75
2018-09-22T16:11:58.013Z,23.61
2018-09-22T16:14:28.411Z,23.47
2018-09-22T16:16:57.413Z,23.43
2018-09-22T16:19:26.639Z,23.41
2018-09-22T16:21:56.843Z,23.29
2018-09-22T16:24:25.814Z,23.15
2018-09-22T16:26:54.801Z,23.16
2018-09-22T16:29:23.845Z,23.18
2018-09-22T16:31:54.135Z,23.14
2018-09-22T16:34:23.157Z,23.09
2018-09-22T16:36:52.115Z,23.04
2018-09-22T16:39:21.163Z,23.04
2018-09-22T16:41:50.203Z,23.07
2018-09-22T16:44:19.186Z,23.03
2018-09-22T16:46:49.556Z,22.98
2018-09-22T16:49:18.553Z,22.91
2018-09-22T16:51:47.499Z,22.98
2018-09-22T16:54:17.740Z,22.96
2018-09-22T16:56:46.788Z,22.93
2018-09-22T16:59:15.821Z,22.89
2018-09-22T17:01:44.805Z,22.88
2018-09-22T17:04:13.840Z,22.81
2018-09-22T17:06:42.824Z,22.75
2018-09-22T17:09:11.802Z,22.68
2018-09-22T17:11:40.772Z,22.63
2018-09-22T17:14:09.756Z,22.67
2018-09-22T17:16:38.788Z,22.59
2018-09-22T17:19:08.101Z,22.54
2018-09-22T17:21:37.065Z,22.53
2018-09-22T17:24:06.088Z,22.54
2018-09-22T17:26:35.124Z,22.47
2018-09-22T17:29:04.100Z,22.50
2018-09-22T17:31:33.091Z,22.39
2018-09-22T17:34:03.637Z,22.46
2018-09-22T17:36:32.678Z,22.42
2018-09-22T17:39:01.670Z,22.32
2018-09-22T17:41:30.703Z,22.45
2018-09-22T17:43:59.668Z,22.35
2018-09-22T17:46:28.702Z,22.31
2018-09-22T17:48:57.848Z,22.30
2018-09-22T17:51:26.820Z,22.21
2018-09-22T17:53:55.996Z,22.32
2018-09-22T17:56:25.040Z,22.25
2018-09-22T17:58:53.998Z,22.19
2018-09-22T18:01:23.012Z,22.20
2018-09-22T18:03:52.097Z,22.13
2018-09-22T18:06:21.191Z,22.12
2018-09-22T18:08:50.179Z,22.14
2018-09-22T18:11:19.245Z,22.05
2018-09-22T18:13:48.205Z,22.05
2018-09-22T18:16:17.319Z,22.02
2018-09-22T18:18:46.340Z,21.97
2018-09-22T18:21:15.459Z,21.91
2018-09-22T18:23:44.473Z,21.90
2018-09-22T18:26:13.468Z,21.96
2018-09-22T18:28:42.537Z,21.88
2018-09-22T18:31:11.580Z,21.90
2018-09-22T18:33:40.580Z,21.84
2018-09-22T18:36:09.554Z,21.85
2018-09-22T18:38:38.506Z,21.56
2018-09-22T18:41:07.533Z,21.24
2018-09-22T18:43:36.578Z,20.92
2018-09-22T18:46:05.539Z,20.84
2018-09-22T18:48:35.848Z,20.79
2018-09-22T18:51:06.270Z,20.74
2018-09-22T18:53:35.302Z,20.70
2018-09-22T18:56:04.304Z,20.73
2018-09-22T18:58:34.671Z,20.71
2018-09-22T19:01:03.635Z,20.63
2018-09-22T19:03:32.630Z,20.68
2018-09-22T19:06:02.956Z,20.70
2018-09-22T19:08:31.924Z,20.60
2018-09-22T19:11:00.887Z,20.55
2018-09-22T19:13:32.631Z,20.44
2018-09-22T19:16:12.056Z,20.30
2018-09-22T19:18:51.732Z,20.34
2018-09-22T19:21:30.808Z,20.37
2018-09-22T19:24:02.661Z,20.44
2018-09-22T19:26:35.286Z,20.48
2018-09-22T19:29:12.050Z,20.47
2018-09-22T19:31:45.618Z,20.52
2018-09-22T19:34:17.698Z,20.60
2018-09-22T19:37:03.712Z,20.50
2018-09-22T19:39:43.160Z,20.56
2018-09-22T19:42:16.684Z,20.59
2018-09-22T19:44:51.877Z,20.58
2018-09-22T19:47:30.287Z,20.57
2018-09-22T19:50:04.267Z,20.59
2018-09-22T19:52:38.621Z,20.55
2018-09-22T19:55:08.871Z,20.59
2018-09-22T19:57:37.893Z,20.53
2018-09-22T20:00:07.386Z,20.47
2018-09-22T20:02:36.364Z,20.46
2018-09-22T20:05:05.376Z,20.49
2018-09-22T20:07:34.581Z,20.44
2018-09-22T20:10:05.091Z,20.44
2018-09-22T20:12:34.063Z,20.47
2018-09-22T20:15:03.042Z,20.44
2018-09-22T20:17:32.138Z,20.39
2018-09-22T20:20:01.082Z,20.37
2018-09-22T20:22:30.032Z,20.12
2018-09-22T20:25:00.355Z,20.12
2018-09-22T20:27:30.280Z,20.11
2018-09-22T20:29:59.230Z,20.15
2018-09-22T20:32:29.393Z,20.17
2018-09-22T20:34:58.383Z,20.03
2018-09-22T20:37:27.384Z,19.99
2018-09-22T20:39:56.372Z,19.91
2018-09-22T20:42:25.365Z,20.03
2018-09-22T20:44:54.309Z,20.12
2018-09-22T20:47:23.227Z,19.97
2018-09-22T20:49:52.391Z,19.65
2018-09-22T20:52:21.309Z,19.68
2018-09-22T20:54:50.240Z,19.67
2018-09-22T20:57:20.475Z,19.74
2018-09-22T20:59:49.408Z,19.77
2018-09-22T21:02:18.425Z,19.76
2018-09-22T21:04:47.404Z,19.79
2018-09-22T21:07:16.327Z,19.73
2018-09-22T21:09:45.260Z,19.81
2018-09-22T21:12:14.255Z,19.78
2018-09-22T21:14:43.193Z,19.74
2018-09-22T21:17:12.170Z,19.77
2018-09-22T21:19:41.127Z,19.84
2018-09-22T21:22:10.261Z,19.90
2018-09-22T21:24:39.178Z,19.97
2018-09-22T21:27:08.128Z,19.99
2018-09-22T21:29:37.078Z,19.97
2018-09-22T21:32:06.144Z,19.95
2018-09-22T21:34:35.103Z,19.90
2018-09-22T21:37:04.032Z,19.92
2018-09-22T21:39:34.276Z,19.89
2018-09-22T21:42:03.201Z,19.94
2018-09-22T21:44:32.111Z,20.03
2018-09-22T21:47:01.116Z,19.96
2018-09-22T21:49:30.037Z,19.65
2018-09-22T21:51:59.097Z,19.57
2018-09-22T21:54:28.063Z,19.52
2018-09-22T21:56:56.940Z,19.51
2018-09-22T21:59:25.935Z,19.56
2018-09-22T22:01:54.903Z,19.49
2018-09-22T22:04:23.851Z,19.10
2018-09-22T22:06:52.771Z,19.14
2018-09-22T22:09:23.076Z,18.97
2018-09-22T22:11:51.988Z,18.83
2018-09-22T22:14:20.912Z,18.68
2018-09-22T22:16:49.912Z,18.51
2018-09-22T22:19:18.855Z,18.48
2018-09-22T22:21:47.827Z,18.25
2018-09-22T22:24:16.820Z,18.22
2018-09-22T22:26:45.762Z,18.16
2018-09-22T22:29:14.711Z,18.00
2018-09-22T22:31:43.770Z,17.99
2018-09-22T22:34:12.771Z,17.93
2018-09-22T22:36:41.724Z,17.98
2018-09-22T22:39:12.040Z,18.02
2018-09-22T22:41:40.963Z,18.15
2018-09-22T22:44:09.980Z,18.06
2018-09-22T22:46:39.005Z,18.06
2018-09-22T22:49:07.952Z,18.10
2018-09-22T22:51:38.099Z,18.11
2018-09-22T22:54:07.135Z,18.04
2018-09-22T22:56:36.039Z,17.96
2018-09-22T22:59:04.964Z,18.01
2018-09-22T23:01:33.870Z,17.91
2018-09-22T23:04:03.046Z,17.84
2018-09-22T23:06:31.962Z,17.91
2018-09-22T23:09:00.860Z,17.94
2018-09-22T23:11:29.839Z,17.95
2018-09-22T23:13:58.823Z,17.95
2018-09-22T23:16:27.740Z,17.97
2018-09-22T23:18:56.618Z,17.75
2018-09-22T23:21:25.463Z,17.68
2018-09-22T23:23:54.419Z,17.74
2018-09-22T23:26:24.712Z,17.77
2018-09-22T23:28:53.561Z,17.65
2018-09-22T23:31:22.383Z,17.73
2018-09-22T23:33:51.352Z,17.69
2018-09-22T23:36:20.220Z,17.69
2018-09-22T23:38:49.104Z,17.70
2018-09-22T23:41:18.019Z,17.64
2018-09-22T23:43:46.933Z,17.56
2018-09-22T23:46:15.964Z,17.53
2018-09-22T23:48:44.879Z,17.41
2018-09-22T23:51:13.820Z,17.37
2018-09-22T23:53:42.711Z,17.24
2018-09-22T23:56:11.665Z,17.10
2018-09-22T23:58:40.555Z,17.15
